»·PEaware :: WAT348 KEUG-KSFO

WAT348 :: KEUG-KSFO

FLIGHT INFORMATION

Flight Status: Arrived
Operator:
Walker Air Transport
More flights by this operator :: More flights under this callsign
Pilot: Austin W. (7615)
Aircraft: BOEING 727-200
(B722)
More flights by this aircraft type
Origin: KEUG Mahlon Sweet
United States
Destination: KSFO San Francisco Intl
United States
More flights between these airports :: More routes between these airports
Route: EUG1 EUG V448 OED J1 RBL STINS3
File this flight plan on PilotEdge
Remarks:
Altitude:
(Current/Filed)
31,000ft
Speed:
(Current/Filed)
401kts
Departed: 21-Feb-21 08:59 AM
Arrived: 21-Feb-21 10:07 AM
Distance/Time
Traveled:
392nm/1:08
Distance/Time
To Go:
Arrived

Flight Plot

Page will automatically refresh every two minutes.

Flight plan parsing failed; only flown route is shown


Map Options




Map Legend


Flown Route
Filed Route
Departure Airport
Arrival Airport
Navaid (VOR, NDB)
Fix

Horizontal Profiles

Position Reports

Time Latitude Longitude Heading Altitude Ground
Speed
21-Feb-21 08:29 44.119465 -123.214352 57 374ft 0kts
21-Feb-21 08:30 44.119465 -123.214352 57 374ft 0kts
21-Feb-21 08:31 44.119465 -123.214352 57 374ft 0kts
21-Feb-21 08:32 44.119465 -123.214352 57 374ft 0kts
21-Feb-21 08:33 44.119465 -123.214352 57 374ft 0kts
21-Feb-21 08:34 44.119465 -123.214352 57 374ft 0kts
21-Feb-21 08:35 44.119465 -123.214352 57 374ft 0kts
21-Feb-21 08:36 44.119465 -123.214352 57 374ft 0kts
21-Feb-21 08:37 44.119465 -123.214352 57 374ft 0kts
21-Feb-21 08:38 44.119465 -123.214352 57 374ft 0kts
21-Feb-21 08:39 44.119465 -123.214352 57 374ft 0kts
21-Feb-21 08:40 44.119465 -123.214352 57 374ft 0kts
21-Feb-21 08:41 44.119465 -123.214352 57 374ft 0kts
21-Feb-21 08:42 44.119465 -123.214352 57 374ft 0kts
21-Feb-21 08:43 44.119465 -123.214352 57 374ft 0kts
21-Feb-21 08:44 44.119465 -123.214352 57 374ft 0kts
21-Feb-21 08:45 44.119465 -123.214352 57 374ft 0kts
21-Feb-21 08:46 44.119465 -123.214352 57 374ft 0kts
21-Feb-21 08:47 44.119316 -123.214678 57 374ft 2kts
21-Feb-21 08:48 44.119116 -123.215490 75 374ft 2kts
21-Feb-21 08:49 44.119037 -123.215919 75 374ft 0kts
21-Feb-21 08:50 44.119037 -123.215919 75 374ft 0kts
21-Feb-21 08:51 44.119037 -123.215918 75 374ft 0kts
21-Feb-21 08:52 44.119037 -123.215918 75 375ft 0kts
21-Feb-21 08:53 44.119037 -123.215918 75 375ft 0kts
21-Feb-21 08:54 44.119717 -123.216732 328 373ft 16kts
21-Feb-21 08:55 44.127672 -123.217106 359 367ft 33kts
21-Feb-21 08:56 44.135029 -123.217298 343 363ft 6kts
21-Feb-21 08:57 44.134539 -123.219134 179 363ft 18kts
21-Feb-21 08:58 44.106715 -123.218734 179 1456ft 170kts
21-Feb-21 08:59 44.055477 -123.217048 179 5393ft 190kts
21-Feb-21 09:00 43.989076 -123.201273 177 7679ft 264kts
21-Feb-21 09:01 43.899765 -123.189203 178 9006ft 331kts
21-Feb-21 09:02 43.801445 -123.174474 167 10719ft 353kts
21-Feb-21 09:03 43.704786 -123.138753 171 13647ft 369kts
21-Feb-21 09:04 43.601583 -123.114163 177 16199ft 384kts
21-Feb-21 09:05 43.492976 -123.102761 181 18526ft 398kts
21-Feb-21 09:06 43.380251 -123.095879 180 20558ft 413kts
21-Feb-21 09:07 43.263945 -123.080199 174 22376ft 428kts
21-Feb-21 09:08 43.144259 -123.062044 176 23949ft 440kts
21-Feb-21 09:09 43.021723 -123.036774 171 25427ft 451kts
21-Feb-21 09:10 42.896404 -123.003246 171 26712ft 461kts
21-Feb-21 09:11 42.768363 -122.973346 173 27846ft 469kts
21-Feb-21 09:12 42.638052 -122.947075 173 28848ft 478kts
21-Feb-21 09:13 42.505186 -122.918547 172 29771ft 486kts
21-Feb-21 09:14 42.370623 -122.888277 175 30520ft 493kts
21-Feb-21 09:15 42.238648 -122.840550 159 31115ft 501kts
21-Feb-21 09:16 42.101319 -122.800085 170 31613ft 511kts
21-Feb-21 09:17 41.958746 -122.765918 169 31601ft 528kts
21-Feb-21 09:18 41.812380 -122.728384 168 31595ft 542kts
21-Feb-21 09:19 41.663098 -122.685664 167 31596ft 553kts
21-Feb-21 09:20 41.512531 -122.640819 166 31595ft 557kts
21-Feb-21 09:21 41.361157 -122.596238 167 31594ft 557kts
21-Feb-21 09:22 41.209429 -122.553252 167 31594ft 556kts
21-Feb-21 09:23 41.057712 -122.513495 169 31584ft 555kts
21-Feb-21 09:24 40.907815 -122.467159 163 31540ft 555kts
21-Feb-21 09:25 40.758218 -122.417091 165 31528ft 554kts
21-Feb-21 09:26 40.607814 -122.376567 167 31530ft 554kts
21-Feb-21 09:27 40.456315 -122.337846 164 31532ft 553kts
21-Feb-21 09:28 40.306280 -122.291902 167 31548ft 554kts
21-Feb-21 09:29 40.155429 -122.251642 166 31560ft 555kts
21-Feb-21 09:30 40.003965 -122.213322 179 31562ft 557kts
21-Feb-21 09:31 39.868706 -122.295964 220 31591ft 533kts
21-Feb-21 09:32 39.729958 -122.350925 193 30736ft 520kts
21-Feb-21 09:33 39.591649 -122.396297 197 29657ft 508kts
21-Feb-21 09:34 39.456819 -122.442173 193 28590ft 498kts
21-Feb-21 09:35 39.323654 -122.482066 197 27603ft 487kts
21-Feb-21 09:36 39.194872 -122.531062 200 26639ft 478kts
21-Feb-21 09:37 39.069180 -122.580815 199 25626ft 469kts
21-Feb-21 09:38 38.944031 -122.622500 195 24686ft 461kts
21-Feb-21 09:39 38.818342 -122.654313 192 24516ft 463kts
21-Feb-21 09:40 38.692864 -122.684651 193 24025ft 453kts
21-Feb-21 09:41 38.570161 -122.719583 196 23008ft 443kts
21-Feb-21 09:42 38.450161 -122.758450 196 22019ft 435kts
21-Feb-21 09:43 38.333568 -122.794228 195 20776ft 425kts
21-Feb-21 09:44 38.220253 -122.826785 195 19054ft 413kts
21-Feb-21 09:45 38.110270 -122.859062 195 17367ft 401kts
21-Feb-21 09:46 38.002356 -122.884018 170 15585ft 396kts
21-Feb-21 09:47 37.921517 -122.799139 135 13772ft 383kts
21-Feb-21 09:48 37.822185 -122.753802 163 12545ft 380kts
21-Feb-21 09:49 37.750559 -122.668431 114 11461ft 363kts
21-Feb-21 09:50 37.712799 -122.554100 108 10989ft 335kts
21-Feb-21 09:51 37.679836 -122.448965 107 10996ft 311kts
21-Feb-21 09:52 37.648763 -122.350286 108 10667ft 293kts
21-Feb-21 09:53 37.619402 -122.256039 108 9415ft 283kts
21-Feb-21 09:54 37.591632 -122.164469 108 7036ft 277kts
21-Feb-21 09:55 37.563949 -122.074709 108 6009ft 262kts
21-Feb-21 09:56 37.537860 -121.995861 127 5997ft 239kts
21-Feb-21 09:57 37.491218 -122.012133 263 5321ft 201kts
21-Feb-21 09:58 37.494485 -122.077419 295 4140ft 171kts
21-Feb-21 09:59 37.514824 -122.133110 302 3874ft 185kts
21-Feb-21 10:00 37.540545 -122.190356 303 2912ft 187kts
21-Feb-21 10:01 37.564299 -122.244716 301 1934ft 168kts
21-Feb-21 10:02 37.579083 -122.292678 275 1221ft 129kts
21-Feb-21 10:03 37.581410 -122.338285 277 1410ft 133kts
21-Feb-21 10:04 37.592909 -122.380040 324 589ft 128kts
21-Feb-21 10:05 37.621879 -122.373673 28 20ft 72kts
21-Feb-21 10:06 37.626877 -122.372287 217 15ft 12kts
21-Feb-21 10:07 37.621893 -122.376132 228 27ft 23kts
21-Feb-21 10:09 37.617548 -122.379464 175 34ft 18kts
21-Feb-21 10:10 37.616363 -122.381301 10 35ft 5kts
21-Feb-21 10:11 37.616501 -122.381255 15 35ft 0kts

Navigation Log

Ident Type
Flight plan parsing failed, navigation log unavailable